Time;durP1;ratioP1;P1;durP2;ratioP2;P2;SDS_P1;SDS_P2;PMS_P1;PMS_P2;Temp;Humidity;BMP_temperature;BMP_pressure;BME280_temperature;BME280_humidity;BME280_pressure;Samples;Min_cycle;Max_cycle;Signal;HPM_P1;HPM_P2
2022/06/02 00:01:55;;;;;;;12.93;8.43;;;;;;;9.28;90.05;101903.03;5032827;28;20040;-67
2022/06/02 00:04:53;;;;;;;11.85;8.48;;;;;;;9.30;90.32;101906.53;5031056;28;20037;-67
2022/06/02 00:07:37;;;;;;;12.48;8.40;;;;;;;9.31;90.48;101913.56;5030767;28;20044;-67
2022/06/02 00:10:18;;;;;;;13.57;9.20;;;;;;;9.23;90.70;101913.00;5031256;28;20068;-67
2022/06/02 00:12:47;;;;;;;15.25;8.88;;;;;;;9.24;90.76;101912.09;5034225;28;20847;-67
2022/06/02 00:15:30;;;;;;;15.02;9.05;;;;;;;9.22;90.63;101919.25;5032773;28;20128;-68
2022/06/02 00:18:04;;;;;;;15.52;9.80;;;;;;;9.17;90.95;101913.25;5034334;28;20126;-68
2022/06/02 00:20:53;;;;;;;15.13;9.73;;;;;;;9.11;91.33;101910.84;5033994;28;20094;-68
2022/06/02 00:23:39;;;;;;;14.55;11.25;;;;;;;9.16;91.18;101908.00;5024301;28;20080;-67
2022/06/02 00:26:27;;;;;;;15.18;10.50;;;;;;;9.11;91.18;101918.84;5037712;28;20037;-67
2022/06/02 00:29:00;;;;;;;14.43;10.25;;;;;;;9.13;91.47;101918.75;5038083;28;20041;-68
2022/06/02 00:31:57;;;;;;;15.68;11.30;;;;;;;9.13;91.08;101918.75;5034939;28;20045;-67
2022/06/02 00:34:31;;;;;;;15.25;11.20;;;;;;;9.15;91.29;101915.13;5037509;28;20041;-69
2022/06/02 00:37:15;;;;;;;15.65;11.65;;;;;;;9.12;91.29;101923.22;5037703;28;20772;-67
2022/06/02 00:39:40;;;;;;;20.50;12.70;;;;;;;9.06;91.82;101924.34;5037622;28;20036;-69
2022/06/02 00:42:24;;;;;;;16.38;11.52;;;;;;;9.08;91.21;101917.16;5036682;28;20048;-68
2022/06/02 00:44:54;;;;;;;20.13;11.82;;;;;;;8.87;90.22;101918.00;5036344;28;20058;-69
2022/06/02 00:47:40;;;;;;;17.17;11.50;;;;;;;8.72;90.61;101926.56;5036664;28;20858;-69
2022/06/02 00:50:05;;;;;;;16.35;11.80;;;;;;;8.75;90.99;101924.66;5035457;28;20041;-69
2022/06/02 00:52:48;;;;;;;23.27;13.55;;;;;;;8.77;91.56;101924.59;5037112;28;20033;-69
2022/06/02 00:58:22;;;;;;;18.98;12.35;;;;;;;8.55;90.27;101930.75;5039173;28;19928;-68
2022/06/02 01:01:12;;;;;;;20.05;12.15;;;;;;;8.39;91.35;101929.59;5043360;28;20051;-69
2022/06/02 01:03:42;;;;;;;18.55;12.43;;;;;;;8.39;91.08;101931.38;5053866;28;20048;-69
2022/06/02 01:06:23;;;;;;;21.23;13.00;;;;;;;8.49;91.31;101930.13;5053764;28;20024;-68
2022/06/02 01:09:10;;;;;;;18.13;12.43;;;;;;;8.53;90.72;101939.69;5053606;28;20045;-69
2022/06/02 01:11:47;;;;;;;18.77;13.73;;;;;;;8.46;92.34;101935.53;5041391;28;20130;-69
2022/06/02 01:14:22;;;;;;;22.65;14.90;;;;;;;8.51;93.08;101941.53;5028601;28;20060;-69
2022/06/02 01:16:59;;;;;;;26.27;15.18;;;;;;;8.52;92.68;101945.94;5054131;28;20488;-68
2022/06/02 01:19:36;;;;;;;28.63;16.08;;;;;;;8.51;92.83;101949.53;5047545;28;20161;-68
2022/06/02 01:22:31;;;;;;;23.27;14.95;;;;;;;8.53;92.82;101939.69;5041997;28;20092;-68
2022/06/02 01:24:56;;;;;;;26.42;16.40;;;;;;;8.44;93.57;101943.56;5029102;28;20049;-68
2022/06/02 01:27:38;;;;;;;23.95;15.75;;;;;;;8.53;92.21;101939.69;5052811;28;20048;-68
2022/06/02 01:30:16;;;;;;;26.15;16.05;;;;;;;8.36;93.26;101937.66;5044731;28;20087;-68
2022/06/02 01:32:53;;;;;;;24.05;16.45;;;;;;;8.43;92.83;101943.59;5035121;28;20049;-68
2022/06/02 01:35:41;;;;;;;25.42;16.63;;;;;;;8.38;92.61;101953.53;5036082;28;20051;-68
2022/06/02 01:38:16;;;;;;;26.02;17.05;;;;;;;8.42;92.45;101952.50;5036787;28;20045;-68
2022/06/02 01:41:00;;;;;;;31.30;16.30;;;;;;;8.38;92.10;101945.56;5036120;28;20049;-68
2022/06/02 01:43:42;;;;;;;26.83;16.80;;;;;;;8.24;93.18;101951.38;5034501;28;20385;-69
2022/06/02 01:46:31;;;;;;;26.15;16.42;;;;;;;8.27;92.32;101952.09;5035941;28;20053;-69
2022/06/02 01:49:09;;;;;;;28.92;16.30;;;;;;;8.21;92.66;101941.69;5036076;28;20037;-68
2022/06/02 01:51:48;;;;;;;24.77;15.57;;;;;;;8.24;91.71;101946.06;5032574;28;20116;-69
2022/06/02 01:54:35;;;;;;;26.15;16.90;;;;;;;8.18;92.14;101944.50;5034827;28;20551;-68
2022/06/02 01:57:18;;;;;;;29.58;16.63;;;;;;;8.05;92.59;101949.34;5030207;28;20041;-69
2022/06/02 02:00:10;;;;;;;20.67;13.05;;;;;;;7.86;91.26;101955.34;5028558;28;20033;-68
2022/06/02 02:02:53;;;;;;;17.75;11.65;;;;;;;7.77;89.88;101957.38;5023468;28;20784;-68
2022/06/02 02:05:45;;;;;;;21.45;12.95;;;;;;;7.93;90.21;101963.06;5036580;28;20064;-69
2022/06/02 02:08:33;;;;;;;20.83;13.38;;;;;;;7.92;90.00;101963.97;5035700;28;20063;-68
2022/06/02 02:11:55;;;;;;;16.80;11.35;;;;;;;7.69;90.59;101961.25;5035333;28;20045;-69
2022/06/02 02:14:47;;;;;;;21.35;13.00;;;;;;;7.69;91.62;101953.28;5031947;28;20084;-69
2022/06/02 02:17:40;;;;;;;22.63;13.95;;;;;;;7.81;91.76;101962.59;5021072;28;20096;-68
2022/06/02 02:20:26;;;;;;;27.55;15.98;;;;;;;7.77;92.05;101951.22;5031911;28;20061;-68
2022/06/02 02:22:57;;;;;;;24.67;15.50;;;;;;;7.69;92.53;101961.25;5016940;28;20855;-68
2022/06/02 02:25:36;;;;;;;16.08;11.13;;;;;;;7.33;91.13;101971.25;5031227;28;20049;-68
2022/06/02 02:28:11;;;;;;;14.18;9.85;;;;;;;7.17;90.70;101962.91;5014654;28;20819;-68
2022/06/02 02:30:41;;;;;;;20.38;12.77;;;;;;;7.23;91.06;101958.28;5032400;28;20037;-68
2022/06/02 02:33:31;;;;;;;20.50;12.45;;;;;;;7.42;90.93;101963.84;5030796;28;20048;-68
2022/06/02 02:36:12;;;;;;;16.60;11.80;;;;;;;7.27;89.69;101967.88;5030753;28;20191;-68
2022/06/02 02:38:59;;;;;;;14.63;9.85;;;;;;;7.13;90.06;101962.16;5048096;28;20052;-68
2022/06/02 02:41:46;;;;;;;16.98;11.45;;;;;;;7.24;91.18;101965.34;5030148;28;20530;-68
2022/06/02 02:44:39;;;;;;;23.13;12.50;;;;;;;7.34;90.58;101970.34;5029567;28;20092;-68
2022/06/02 02:47:20;;;;;;;23.15;14.48;;;;;;;7.15;93.22;101962.97;5031784;28;20070;-68
2022/06/02 02:49:59;;;;;;;25.42;14.45;;;;;;;7.22;92.62;101975.09;5012578;28;20091;-68
2022/06/02 02:52:47;;;;;;;19.27;11.35;;;;;;;7.19;90.90;101974.34;5019190;28;20071;-68
2022/06/02 02:55:37;;;;;;;18.00;10.75;;;;;;;7.04;90.58;101972.19;5032373;28;20124;-67
2022/06/02 02:58:37;;;;;;;13.15;8.90;;;;;;;6.90;90.15;101968.16;5040991;28;20072;-67
2022/06/02 03:01:29;;;;;;;16.83;9.70;;;;;;;6.99;89.71;101967.00;5033901;28;20941;-67
2022/06/02 03:04:19;;;;;;;15.85;11.00;;;;;;;6.86;89.45;101982.41;5028533;28;20084;-67
2022/06/02 03:06:47;;;;;;;15.60;10.48;;;;;;;6.91;89.52;101975.19;5025149;28;20048;-67
2022/06/02 03:09:18;;;;;;;15.07;9.88;;;;;;;6.94;88.83;101977.75;5029497;28;20037;-67
2022/06/02 03:11:53;;;;;;;23.75;12.10;;;;;;;6.90;90.88;101984.06;5016697;28;20114;-67
2022/06/02 03:14:44;;;;;;;17.13;10.77;;;;;;;6.90;89.98;101980.53;5022206;28;20045;-67
2022/06/02 03:17:37;;;;;;;16.52;10.25;;;;;;;6.84;89.55;101978.94;5022258;28;20061;-67
2022/06/02 03:20:22;;;;;;;14.27;8.27;;;;;;;6.86;89.21;101978.88;5031290;28;20143;-67
2022/06/02 03:23:08;;;;;;;15.75;9.25;;;;;;;6.97;88.96;101976.78;5029099;28;20037;-68
2022/06/02 03:26:00;;;;;;;17.58;11.27;;;;;;;7.07;89.45;101980.00;5019042;28;20060;-68
2022/06/02 03:28:48;;;;;;;19.45;12.05;;;;;;;6.90;89.72;101981.41;5021637;28;20079;-70
2022/06/02 03:31:35;;;;;;;18.98;11.13;;;;;;;7.01;89.76;101986.38;5022820;28;20120;-69
2022/06/02 03:34:06;;;;;;;20.33;13.77;;;;;;;7.11;89.65;101985.19;5023882;28;20766;-69
2022/06/02 03:36:59;;;;;;;24.48;14.10;;;;;;;7.08;91.17;101989.69;5019466;28;20545;-69
2022/06/02 03:39:43;;;;;;;;;;;;;;;7.13;88.76;101986.03;5018816;28;20161;-69
2022/06/02 03:42:44;;;;;;;19.50;10.07;;;;;;;7.11;88.80;101994.94;5020512;28;19971;-69
2022/06/02 03:45:47;;;;;;;14.55;9.82;;;;;;;7.19;88.07;101995.56;5017804;28;20091;-69
2022/06/02 03:48:46;;;;;;;11.80;8.10;;;;;;;7.29;86.78;101991.72;5025027;28;20044;-69
2022/06/02 03:51:17;;;;;;;11.00;7.18;;;;;;;7.08;86.27;101995.00;5018507;28;20049;-68
2022/06/02 03:53:55;;;;;;;9.23;6.10;;;;;;;6.94;88.72;101995.44;5023826;28;20037;-69
2022/06/02 03:56:39;;;;;;;12.48;7.22;;;;;;;6.98;88.70;101999.75;5023051;28;20061;-69
2022/06/02 03:59:11;;;;;;;12.48;8.40;;;;;;;6.95;89.93;102005.13;5033437;28;20545;-70
2022/06/02 04:01:41;;;;;;;16.55;10.15;;;;;;;7.07;90.39;101998.59;5035239;28;20834;-69
2022/06/02 04:04:07;;;;;;;16.30;10.55;;;;;;;7.16;89.93;102014.22;5033830;28;20445;-69
2022/06/02 04:07:03;;;;;;;18.88;11.70;;;;;;;7.44;88.83;102020.44;5034990;28;20037;-69
2022/06/02 04:09:59;;;;;;;20.63;13.38;;;;;;;7.52;89.90;102020.16;5034672;28;20049;-68
2022/06/02 04:16:10;;;;;;;18.98;12.43;;;;;;;7.66;90.57;102027.69;5026864;28;20592;-68
2022/06/02 04:18:52;;;;;;;19.67;12.65;;;;;;;7.66;90.73;102036.53;5034864;28;20041;-69
2022/06/02 04:21:46;;;;;;;17.27;11.65;;;;;;;7.63;90.78;102043.72;5034972;28;20037;-68
2022/06/02 04:24:37;;;;;;;19.50;12.10;;;;;;;7.76;91.50;102050.38;5035199;28;20041;-69
2022/06/02 04:27:23;;;;;;;22.50;13.85;;;;;;;7.85;91.26;102042.13;5033224;28;20067;-68
2022/06/02 04:29:57;;;;;;;26.48;14.80;;;;;;;8.04;89.92;102045.03;5035757;28;20045;-69
2022/06/02 04:32:28;;;;;;;26.08;15.05;;;;;;;8.18;89.70;102050.75;5034964;28;20128;-69
2022/06/02 04:35:17;;;;;;;20.42;12.27;;;;;;;8.14;89.90;102049.13;5034911;28;20537;-69
2022/06/02 04:38:21;;;;;;;20.65;13.02;;;;;;;7.93;90.96;102048.06;5035463;28;20730;-68
2022/06/02 04:40:57;;;;;;;21.17;13.38;;;;;;;8.22;90.41;102055.03;5033409;28;20195;-69
2022/06/02 04:43:49;;;;;;;23.35;13.15;;;;;;;8.52;89.18;102052.25;5032379;28;20041;-67
2022/06/02 04:46:24;;;;;;;23.58;14.40;;;;;;;8.82;89.46;102058.28;5033948;28;20114;-67
2022/06/02 04:49:03;;;;;;;20.52;13.88;;;;;;;8.86;89.81;102057.25;5035320;28;20144;-67
2022/06/02 04:51:37;;;;;;;25.20;15.13;;;;;;;9.71;87.49;102060.19;5034728;28;20037;-67
2022/06/02 04:54:28;;;;;;;26.48;15.15;;;;;;;11.85;79.37;102054.22;5034495;28;20044;-67
2022/06/02 04:57:18;;;;;;;23.15;14.77;;;;;;;13.11;74.00;102053.91;5034166;28;20056;-68
2022/06/02 05:00:01;;;;;;;22.40;15.32;;;;;;;14.34;69.46;102047.78;5030153;28;20032;-68
2022/06/02 05:02:56;;;;;;;20.38;13.23;;;;;;;15.57;65.58;102050.91;5028097;28;20144;-68
2022/06/02 05:05:35;;;;;;;17.92;12.63;;;;;;;15.95;63.71;102051.09;5029685;28;20056;-68
2022/06/02 05:08:13;;;;;;;18.08;13.45;;;;;;;16.25;63.06;102051.72;5024036;28;20505;-68
2022/06/02 05:10:56;;;;;;;19.83;13.77;;;;;;;16.17;62.94;102058.59;5027607;28;20030;-68
2022/06/02 05:13:28;;;;;;;18.00;13.60;;;;;;;16.31;62.09;102048.63;5029855;28;20052;-68
2022/06/02 05:15:59;;;;;;;19.30;13.65;;;;;;;16.14;62.58;102053.41;5030295;28;20040;-69
2022/06/02 05:18:27;;;;;;;19.42;14.38;;;;;;;16.16;62.63;102044.25;5029880;28;20036;-69
2022/06/02 05:20:59;;;;;;;24.60;14.77;;;;;;;16.13;64.57;102051.69;5049220;28;20115;-68
2022/06/02 05:23:39;;;;;;;23.35;14.13;;;;;;;16.48;64.28;102055.53;5029327;28;20029;-69
2022/06/02 05:26:20;;;;;;;20.63;13.90;;;;;;;16.11;63.91;102059.00;5030294;28;20037;-69
2022/06/02 05:29:14;;;;;;;20.95;13.65;;;;;;;16.48;63.51;102062.75;5031201;28;20032;-68
2022/06/02 05:32:10;;;;;;;18.65;14.68;;;;;;;16.54;63.82;102063.19;5026752;28;20056;-69
2022/06/02 05:35:04;;;;;;;20.73;15.00;;;;;;;16.33;63.88;102067.34;5057090;28;20426;-68
2022/06/02 05:37:44;;;;;;;21.98;15.88;;;;;;;16.39;64.90;102071.44;5012797;28;20118;-68
2022/06/02 05:40:33;;;;;;;22.50;17.13;;;;;;;16.77;64.04;102069.72;5027628;28;20037;-68
2022/06/02 05:42:59;;;;;;;22.77;16.30;;;;;;;16.28;65.70;102074.88;5035077;28;20064;-69
2022/06/02 05:46:06;;;;;;;22.58;16.50;;;;;;;17.32;62.63;102076.56;5025118;28;20786;-68
2022/06/02 05:48:58;;;;;;;21.38;16.10;;;;;;;17.97;60.22;102079.94;5017037;28;20056;-68
2022/06/02 05:51:42;;;;;;;19.75;15.18;;;;;;;17.57;61.45;102078.34;5042184;28;20571;-68
2022/06/02 05:54:35;;;;;;;20.38;14.80;;;;;;;17.97;59.73;102077.25;5017545;28;20060;-68
2022/06/02 05:57:00;;;;;;;18.73;15.18;;;;;;;17.67;59.79;102073.16;5026076;28;20064;-68
2022/06/02 06:00:11;;;;;;;18.20;14.68;;;;;;;18.17;57.75;102086.53;5017878;28;20051;-69
2022/06/02 06:03:06;;;;;;;18.83;14.77;;;;;;;18.18;59.68;102075.66;4985762;28;20565;-68
2022/06/02 06:05:42;;;;;;;20.15;15.15;;;;;;;18.22;59.23;102081.66;4969545;28;20681;-68
2022/06/02 06:08:11;;;;;;;20.60;15.60;;;;;;;18.10;59.71;102078.06;4972455;28;20353;-68
2022/06/02 06:10:51;;;;;;;18.50;14.38;;;;;;;18.29;59.20;102078.38;4982577;28;20527;-67
2022/06/02 06:13:48;;;;;;;17.35;14.30;;;;;;;18.76;57.77;102079.28;4987458;28;20054;-68
2022/06/02 06:16:35;;;;;;;19.48;14.32;;;;;;;18.88;57.49;102080.19;4989973;28;20168;-69
2022/06/02 06:19:09;;;;;;;16.20;12.20;;;;;;;18.62;58.72;102084.88;4986010;28;20052;-69
2022/06/02 06:21:57;;;;;;;13.32;10.38;;;;;;;19.09;56.64;102074.91;4983277;28;20999;-69
2022/06/02 06:24:52;;;;;;;11.60;9.45;;;;;;;19.34;53.28;102081.91;4985394;28;20066;-68
2022/06/02 06:27:41;;;;;;;14.32;10.35;;;;;;;19.61;53.24;102084.25;4988643;28;20041;-69
2022/06/02 06:30:26;;;;;;;11.25;7.40;;;;;;;18.86;53.46;102084.84;4989131;28;20092;-68
2022/06/02 06:33:00;;;;;;;10.10;8.18;;;;;;;18.56;54.77;102086.19;4987418;28;20085;-68
2022/06/02 06:35:29;;;;;;;11.45;8.30;;;;;;;18.73;55.07;102084.94;4989014;28;20673;-68
2022/06/02 06:38:11;;;;;;;12.40;8.77;;;;;;;18.59;55.50;102087.81;4994011;28;20053;-68
2022/06/02 06:40:43;;;;;;;10.73;8.82;;;;;;;19.09;55.02;102088.44;5033687;28;20033;-69
2022/06/02 06:43:42;;;;;;;13.40;8.23;;;;;;;18.94;52.99;102089.66;5023298;28;20048;-66
2022/06/02 06:46:17;;;;;;;10.20;9.07;;;;;;;18.27;57.34;102096.56;5022067;28;20077;-67
2022/06/02 06:48:54;;;;;;;10.20;7.75;;;;;;;18.94;54.20;102087.81;5029529;28;20785;-70
2022/06/02 06:51:40;;;;;;;9.68;7.95;;;;;;;18.72;55.48;102095.84;5023711;28;20815;-69
2022/06/02 06:54:20;;;;;;;9.02;6.90;;;;;;;18.96;54.71;102093.06;5023098;28;20033;-70
2022/06/02 06:56:57;;;;;;;6.60;4.85;;;;;;;18.83;53.78;102094.06;5027865;28;20831;-69
2022/06/02 06:59:49;;;;;;;7.85;7.00;;;;;;;18.82;53.16;102097.72;5026032;28;20043;-68
2022/06/02 07:02:14;;;;;;;9.23;7.30;;;;;;;19.85;51.71;102100.31;5029525;28;20068;-69
2022/06/02 07:05:12;;;;;;;8.88;7.10;;;;;;;19.70;53.08;102102.44;5044300;28;20061;-69
2022/06/02 07:08:03;;;;;;;9.50;6.60;;;;;;;19.90;52.51;102107.06;5026759;28;20140;-69
2022/06/02 07:10:42;;;;;;;11.35;7.03;;;;;;;19.63;50.37;102109.34;5027307;28;20106;-69
2022/06/02 07:13:26;;;;;;;9.07;6.38;;;;;;;20.00;48.81;102111.75;5026875;28;20031;-69
2022/06/02 07:15:58;;;;;;;9.10;7.45;;;;;;;20.25;49.31;102115.97;5027336;28;20051;-69
2022/06/02 07:18:39;;;;;;;9.25;6.28;;;;;;;20.71;50.93;102117.50;5024623;28;20045;-69
2022/06/02 07:21:33;;;;;;;6.93;6.20;;;;;;;21.33;47.00;102112.03;5026918;28;20895;-69
2022/06/02 07:24:32;;;;;;;8.00;6.97;;;;;;;20.61;50.05;102123.69;5029248;28;20137;-69
2022/06/02 07:27:37;;;;;;;8.38;5.97;;;;;;;22.13;50.30;102110.25;5028078;28;20775;-69
2022/06/02 07:30:11;;;;;;;11.70;7.00;;;;;;;20.84;48.96;102120.88;5020942;28;20037;-68
2022/06/02 07:33:02;;;;;;;8.25;6.63;;;;;;;21.83;48.70;102119.34;5020178;28;20045;-69
2022/06/02 07:35:58;;;;;;;10.23;7.40;;;;;;;21.10;47.73;102127.59;5025189;28;20187;-69
2022/06/02 07:38:33;;;;;;;10.60;8.35;;;;;;;20.44;49.57;102141.38;5017286;28;20040;-68
2022/06/02 07:41:42;;;;;;;9.50;7.93;;;;;;;20.42;49.34;102137.91;5014552;28;20848;-69
2022/06/02 07:44:22;;;;;;;12.35;8.18;;;;;;;20.37;49.76;102134.75;5004581;28;20049;-74
2022/06/02 07:47:07;;;;;;;10.73;7.80;;;;;;;20.85;50.47;102126.16;5016930;28;20971;-70
2022/06/02 07:49:50;;;;;;;9.50;7.97;;;;;;;20.57;49.46;102137.66;5014178;28;20054;-70
2022/06/02 07:52:25;;;;;;;9.20;7.50;;;;;;;21.35;51.16;102134.47;5013627;28;20026;-69
2022/06/02 07:55:00;;;;;;;11.82;7.82;;;;;;;21.49;48.15;102135.97;5014091;28;20042;-71
2022/06/02 07:57:36;;;;;;;9.35;6.60;;;;;;;21.75;46.73;102136.34;5019695;28;20144;-72
2022/06/02 08:00:05;;;;;;;10.45;6.88;;;;;;;21.03;47.92;102133.69;5014188;28;20744;-69
2022/06/02 08:03:10;;;;;;;10.25;6.65;;;;;;;21.36;46.73;102127.19;5033679;28;20156;-70
2022/06/02 08:05:39;;;;;;;6.88;4.70;;;;;;;21.67;43.72;102141.59;5024347;28;20033;-70
2022/06/02 08:08:17;;;;;;;6.57;4.63;;;;;;;21.62;41.13;102133.00;5020251;28;20041;-70
2022/06/02 08:11:01;;;;;;;4.15;3.75;;;;;;;21.46;44.90;102138.94;5025156;28;20045;-70
2022/06/02 08:14:04;;;;;;;6.05;4.55;;;;;;;21.80;43.85;102144.06;5018246;28;20105;-71
2022/06/02 08:16:41;;;;;;;;;;;;;;;21.04;43.60;102136.28;5033244;28;20044;-70
2022/06/02 08:19:23;;;;;;;6.22;4.95;;;;;;;21.22;43.37;102144.66;5026103;28;20016;-67
2022/06/02 08:21:57;;;;;;;7.53;6.05;;;;;;;20.11;45.75;102146.91;5030734;28;20029;-69
2022/06/02 08:24:41;;;;;;;7.60;6.20;;;;;;;19.03;48.07;102151.97;5026851;28;20521;-68
2022/06/02 08:27:27;;;;;;;8.18;6.25;;;;;;;19.15;50.56;102158.25;5027962;28;20037;-68
2022/06/02 08:30:23;;;;;;;7.47;6.10;;;;;;;18.73;48.01;102155.22;5031606;28;20075;-68
2022/06/02 08:33:13;;;;;;;7.05;5.93;;;;;;;19.38;47.96;102154.59;5033672;28;20436;-68
2022/06/02 08:35:53;;;;;;;8.93;6.53;;;;;;;19.68;44.40;102161.28;5020969;28;20859;-68
2022/06/02 08:38:31;;;;;;;7.32;6.38;;;;;;;20.52;44.25;102165.13;5030507;28;20041;-68
2022/06/02 08:41:28;;;;;;;7.45;6.43;;;;;;;20.15;46.22;102165.47;5031150;28;20127;-68
2022/06/02 08:44:31;;;;;;;11.82;6.80;;;;;;;20.51;48.11;102165.28;5031487;28;20744;-68
2022/06/02 08:47:21;;;;;;;9.15;6.18;;;;;;;20.89;44.64;102162.88;5032622;28;20099;-68
2022/06/02 08:50:20;;;;;;;7.45;5.85;;;;;;;21.45;44.63;102159.81;5031075;28;20045;-68
2022/06/02 08:52:51;;;;;;;6.35;5.47;;;;;;;21.87;42.50;102156.09;5021177;28;20049;-68
2022/06/02 08:55:41;;;;;;;6.97;6.07;;;;;;;21.32;45.85;102155.59;5031806;28;20047;-68
2022/06/02 08:58:58;;;;;;;7.95;6.82;;;;;;;21.45;44.15;102159.81;5030498;28;20787;-68
2022/06/02 09:02:03;;;;;;;6.95;5.75;;;;;;;21.26;45.51;102158.81;5038486;28;20049;-68
2022/06/02 09:04:39;;;;;;;6.85;5.85;;;;;;;21.39;41.88;102157.63;5037084;28;20055;-68
2022/06/02 09:07:22;;;;;;;7.90;6.05;;;;;;;21.62;46.29;102168.28;5048740;28;20055;-69
2022/06/02 09:10:16;;;;;;;7.50;5.90;;;;;;;20.84;45.32;102170.53;5049892;28;20040;-68
2022/06/02 09:13:22;;;;;;;6.95;5.97;;;;;;;19.56;47.84;102167.63;5032148;28;20148;-68
2022/06/02 09:16:17;;;;;;;7.10;6.20;;;;;;;20.19;44.79;102168.81;4973603;28;20065;-68
2022/06/02 09:18:48;;;;;;;7.75;6.35;;;;;;;21.28;42.29;102157.66;4986178;28;20034;-68
2022/06/02 09:21:22;;;;;;;6.82;6.13;;;;;;;20.49;43.49;102165.41;4987075;28;20038;-68
2022/06/02 09:24:14;;;;;;;8.43;6.35;;;;;;;19.38;46.49;102176.25;4989967;28;20544;-68
2022/06/02 09:27:17;;;;;;;10.00;6.18;;;;;;;19.25;48.60;102170.06;4974312;28;20057;-70
2022/06/02 09:29:57;;;;;;;6.78;5.22;;;;;;;19.14;49.92;102170.06;4990078;28;20091;-68
2022/06/02 09:32:44;;;;;;;6.15;5.50;;;;;;;18.97;49.19;102165.94;4990517;28;20566;-68
2022/06/02 09:35:18;;;;;;;6.45;4.82;;;;;;;19.17;49.41;102171.63;4990239;28;20081;-70
2022/06/02 09:38:06;;;;;;;7.65;4.75;;;;;;;20.80;48.59;102176.38;4982185;28;20054;-69
2022/06/02 09:41:20;;;;;;;6.20;4.50;;;;;;;20.96;45.61;102174.03;4980394;28;20061;-68
2022/06/02 09:44:09;;;;;;;8.35;5.45;;;;;;;21.89;43.69;102173.13;4950004;28;20030;-69
2022/06/02 09:46:40;;;;;;;8.07;6.10;;;;;;;22.27;39.21;102164.22;4933991;28;20047;-68
2022/06/02 09:49:48;;;;;;;8.82;5.47;;;;;;;21.81;42.18;102165.66;4948777;28;20153;-68
2022/06/02 09:52:25;;;;;;;6.90;4.20;;;;;;;21.99;40.81;102163.16;4954825;28;21027;-68
2022/06/02 09:55:05;;;;;;;4.90;4.40;;;;;;;21.55;41.85;102159.84;4988026;28;20830;-68
2022/06/02 10:00:38;;;;;;;5.53;4.68;;;;;;;21.78;38.76;102167.78;4988690;28;20064;-68
2022/06/02 10:03:28;;;;;;;5.88;5.28;;;;;;;20.88;41.71;102166.59;4987519;28;20215;-68
2022/06/02 10:06:08;;;;;;;8.25;5.65;;;;;;;21.05;41.79;102164.25;4989294;28;20137;-68
2022/06/02 10:08:49;;;;;;;5.95;4.78;;;;;;;21.17;42.45;102158.63;4988213;28;20531;-68
2022/06/02 10:11:28;;;;;;;6.72;5.68;;;;;;;21.67;43.06;102155.16;4987881;28;20057;-68
2022/06/02 10:14:19;;;;;;;7.38;5.18;;;;;;;21.26;44.22;102159.66;5001428;28;20052;-67
2022/06/02 10:17:13;;;;;;;5.10;4.60;;;;;;;21.06;43.97;102153.28;5029695;28;20639;-68
2022/06/02 10:20:01;;;;;;;5.43;4.57;;;;;;;21.59;44.29;102153.16;5029112;28;20048;-68
2022/06/02 10:22:58;;;;;;;5.13;4.53;;;;;;;22.07;43.03;102148.84;5029098;28;20868;-68
2022/06/02 10:25:47;;;;;;;8.23;5.07;;;;;;;21.85;45.36;102153.53;5029352;28;20049;-71
2022/06/02 10:28:24;;;;;;;8.23;5.70;;;;;;;21.53;42.29;102150.09;5011910;28;20432;-70
2022/06/02 10:31:08;;;;;;;6.68;4.57;;;;;;;21.32;43.64;102152.88;5013390;28;20158;-69
2022/06/02 10:34:08;;;;;;;7.53;5.10;;;;;;;20.49;41.69;102173.53;5029629;28;20963;-69
2022/06/02 10:37:11;;;;;;;7.97;5.50;;;;;;;20.93;40.12;102155.31;5029650;28;20045;-69
2022/06/02 10:39:39;;;;;;;5.45;4.88;;;;;;;21.70;39.63;102155.75;5029603;28;20142;-70
2022/06/02 10:42:26;;;;;;;6.28;4.78;;;;;;;20.40;45.67;102158.03;5027571;28;20076;-69
2022/06/02 10:45:23;;;;;;;6.63;5.50;;;;;;;21.01;43.17;102151.94;5030500;28;20059;-70
2022/06/02 10:48:10;;;;;;;9.40;5.55;;;;;;;21.54;40.72;102138.28;5025857;28;20119;-69
2022/06/02 10:50:59;;;;;;;7.00;4.93;;;;;;;20.93;42.18;102139.03;5020299;28;20171;-70
2022/06/02 10:54:10;;;;;;;4.78;4.20;;;;;;;21.50;42.78;102142.25;5025631;28;20140;-69
2022/06/02 10:56:58;;;;;;;5.57;4.22;;;;;;;20.80;46.45;102131.13;5023041;28;20101;-67
2022/06/02 10:59:53;;;;;;;3.83;3.53;;;;;;;21.61;41.13;102131.28;5023920;28;20048;-70
2022/06/02 11:02:31;;;;;;;7.07;4.93;;;;;;;21.20;43.17;102131.22;5017616;28;20045;-67
2022/06/02 11:04:56;;;;;;;5.10;3.53;;;;;;;21.20;41.41;102136.66;5010603;28;20063;-69
2022/06/02 11:07:58;;;;;;;5.40;3.97;;;;;;;21.29;40.82;102128.72;5008356;28;20041;-70
2022/06/02 11:10:27;;;;;;;6.10;4.40;;;;;;;21.07;46.17;102130.56;5009136;28;20076;-69
2022/06/02 11:13:03;;;;;;;5.15;3.78;;;;;;;20.90;44.80;102136.63;5015913;28;20036;-69
2022/06/02 11:16:00;;;;;;;4.22;3.83;;;;;;;21.32;44.21;102131.16;5029031;28;20478;-70
2022/06/02 11:19:09;;;;;;;9.25;3.50;;;;;;;21.53;40.63;102125.66;5028135;28;20044;-69
2022/06/02 11:22:05;;;;;;;3.80;3.03;;;;;;;21.41;40.90;102124.94;5017249;28;20122;-69
2022/06/02 11:24:51;;;;;;;8.63;3.38;;;;;;;21.52;38.78;102121.25;5028657;28;20518;-69
2022/06/02 11:27:59;;;;;;;4.78;3.55;;;;;;;21.50;44.93;102110.53;5027384;28;20037;-69
2022/06/02 11:31:19;;;;;;;4.75;3.47;;;;;;;21.60;40.52;102121.44;5018094;28;20140;-68
2022/06/02 11:34:21;;;;;;;3.58;3.28;;;;;;;21.96;40.91;102111.78;5024001;28;20052;-68
2022/06/02 11:37:08;;;;;;;3.83;3.17;;;;;;;21.84;41.47;102108.34;5006833;28;20056;-69
2022/06/02 11:39:53;;;;;;;4.72;3.15;;;;;;;20.90;42.31;102109.50;5006775;28;20052;-68
2022/06/02 11:42:37;;;;;;;4.03;3.33;;;;;;;19.95;43.09;102122.09;5006286;28;20045;-68
2022/06/02 11:45:30;;;;;;;5.75;3.83;;;;;;;20.01;42.81;102117.00;5005824;28;20041;-68
2022/06/02 11:48:34;;;;;;;4.25;3.33;;;;;;;20.71;40.20;102103.94;5005615;28;20049;-69
2022/06/02 11:51:08;;;;;;;5.07;3.30;;;;;;;21.76;42.88;102102.75;5005555;28;20045;-69
2022/06/02 11:54:10;;;;;;;4.10;3.70;;;;;;;21.86;40.36;102095.47;5005928;28;20042;-68
2022/06/02 11:56:42;;;;;;;3.85;3.50;;;;;;;22.32;40.51;102093.97;5002964;28;20056;-69
2022/06/02 11:59:22;;;;;;;5.50;3.65;;;;;;;22.21;42.71;102092.25;5005574;28;20186;-68
2022/06/02 12:02:09;;;;;;;5.00;3.50;;;;;;;22.45;41.47;102096.41;5006639;28;20049;-69
2022/06/02 12:05:25;;;;;;;5.28;4.00;;;;;;;21.37;41.82;102089.03;5003594;28;20781;-69
2022/06/02 12:08:15;;;;;;;5.20;3.80;;;;;;;20.17;44.05;102103.03;5008038;28;20057;-68
2022/06/02 12:11:16;;;;;;;4.95;4.38;;;;;;;19.87;44.00;102098.34;5029889;28;20049;-68
2022/06/02 12:14:26;;;;;;;5.50;4.50;;;;;;;19.33;43.19;102105.41;5059290;28;20033;-68
2022/06/02 12:17:03;;;;;;;4.70;4.30;;;;;;;19.79;43.39;102100.84;5016726;28;20823;-69
2022/06/02 12:20:00;;;;;;;3.88;3.42;;;;;;;20.02;43.18;102105.19;5032491;28;20106;-68
2022/06/02 12:22:45;;;;;;;3.95;3.60;;;;;;;20.42;42.12;102097.28;5034115;28;20041;-70
2022/06/02 12:25:36;;;;;;;5.38;3.42;;;;;;;20.81;41.43;102099.44;5034081;28;20055;-68
2022/06/02 12:28:20;;;;;;;5.32;4.03;;;;;;;21.77;37.97;102088.16;5030733;28;20140;-68
2022/06/02 12:31:34;;;;;;;5.57;3.10;;;;;;;21.95;39.60;102088.34;5032862;28;20081;-70
2022/06/02 12:34:28;;;;;;;4.00;3.60;;;;;;;22.43;37.66;102085.66;5019901;28;20049;-68
2022/06/02 12:36:53;;;;;;;6.93;3.85;;;;;;;22.24;40.63;102091.13;5041555;28;20045;-68
2022/06/02 12:39:43;;;;;;;4.32;3.58;;;;;;;22.09;38.72;102085.22;5041154;28;20067;-68
2022/06/02 12:42:49;;;;;;;4.45;3.95;;;;;;;21.82;37.60;102085.88;5048403;28;20089;-68
2022/06/02 12:45:41;;;;;;;4.97;3.47;;;;;;;21.73;41.46;102086.72;5032000;28;20045;-68
2022/06/02 12:48:43;;;;;;;4.97;3.78;;;;;;;20.88;38.20;102089.78;5048669;28;20048;-67
2022/06/02 12:51:21;;;;;;;4.05;3.65;;;;;;;21.15;37.73;102087.38;5025883;28;20131;-70
2022/06/02 12:54:31;;;;;;;5.03;3.72;;;;;;;21.66;39.58;102082.84;5018976;28;20048;-70
2022/06/02 12:57:02;;;;;;;5.65;3.90;;;;;;;21.97;36.59;102080.91;5030252;28;20894;-70